Bg Felixstowe — V2BR7 — position and weather

sailwx.info

Track history (hours):
 
Tides and Currents Weather Stations Pressure Air Temp Water Temp Dewpoint Dewpoint Depression Visibility Wind Speed Wind Dir Waves Ship Positions

Bg Felixstowe

Last reported at 2018-Feb-17 09:23 UTC. Time now 2018-Feb-20 13:36 UTC.
Position N 25°17' W 080°04'.

Length 139 m; draft 5.9 m.

Type: Ship. MMSI: 304906000.

Date/timePositionNaut miles runAvg speedWind from/ knotsBaromVisibWave heightAir tempDewpointWater temp
2018-Feb-17 09:23N 25°17' W 080°04'513.1
2018-Feb-17 09:00N 25°22' W 080°02'713.1
2018-Feb-17 08:30N 25°29' W 080°01'713.4
2018-Feb-17 08:00N 25°35' W 080°02'713.7
2018-Feb-17 07:30N 25°42' W 080°02'5 9.9
2018-Feb-17 07:00N 25°46' W 080°06'3 6.5
2018-Feb-17 06:30N 25°46' W 080°10'0 0.0
2018-Feb-17 05:58N 25°46' W 080°10'0 0.0
2018-Feb-17 05:28N 25°46' W 080°10'0 0.0
2018-Feb-17 05:00N 25°46' W 080°10'0 0.0
2018-Feb-17 04:29N 25°46' W 080°10'0 0.0
2018-Feb-17 03:59N 25°46' W 080°10'0 0.0
2018-Feb-17 03:29N 25°46' W 080°10'0 0.0
2018-Feb-17 02:59N 25°46' W 080°10'0 0.0
2018-Feb-17 02:28N 25°46' W 080°10'0 0.0
2018-Feb-17 01:58N 25°46' W 080°10'0 0.0
2018-Feb-17 01:28N 25°46' W 080°10'0 0.0
2018-Feb-17 00:58N 25°46' W 080°10'0 0.0
2018-Feb-17 00:28N 25°46' W 080°10'0 0.0
2018-Feb-17 00:00N 25°46' W 080°10'0 0.0
2018-Feb-16 23:30N 25°46' W 080°10'0 0.0
2018-Feb-16 23:00N 25°46' W 080°10'0 0.0
2018-Feb-16 22:27N 25°46' W 080°10'0 0.0
2018-Feb-16 21:56N 25°46' W 080°10'0 0.0
2018-Feb-16 21:29N 25°46' W 080°10'0 0.0
2018-Feb-16 20:59N 25°46' W 080°10'0 0.0
2018-Feb-16 20:29N 25°46' W 080°10'0 0.0
2018-Feb-16 19:59N 25°46' W 080°10'0 0.0
2018-Feb-16 19:25N 25°46' W 080°10'0 0.0
2018-Feb-16 18:58N 25°46' W 080°10'0 0.0
2018-Feb-16 18:28N 25°46' W 080°10'0 0.0
2018-Feb-16 17:58N 25°46' W 080°10'0 0.0
2018-Feb-16 17:28N 25°46' W 080°10'0 0.0
2018-Feb-16 17:00N 25°46' W 080°10'0 0.0
2018-Feb-16 16:30N 25°46' W 080°10'0 0.0
2018-Feb-16 16:00N 25°46' W 080°10'0 0.0
2018-Feb-16 15:30N 25°46' W 080°10'0 0.0
2018-Feb-16 14:59N 25°46' W 080°10'0 0.0
2018-Feb-16 14:29N 25°46' W 080°10'0 0.0
2018-Feb-16 13:59N 25°46' W 080°10'0 0.0
2018-Feb-16 13:29N 25°46' W 080°10'0 0.0
2018-Feb-16 12:59N 25°46' W 080°10'0 0.0
2018-Feb-16 12:22N 25°46' W 080°10'0 0.0
2018-Feb-16 12:00N 25°46' W 080°10'1 1.1
2018-Feb-16 11:30N 25°46' W 080°10'0 0.2
2018-Feb-16 10:59N 25°46' W 080°10'0 0.0
2018-Feb-16 10:29N 25°46' W 080°10'0 0.0
2018-Feb-16 09:58N 25°46' W 080°10'0 0.0
2018-Feb-16 09:28N 25°46' W 080°10'0 0.0
2018-Feb-16 08:52N 25°46' W 080°10'0 0.0
2018-Feb-16 08:25N 25°46' W 080°10'0 0.0
2018-Feb-16 08:00N 25°46' W 080°10'0 0.0
2018-Feb-16 07:30N 25°46' W 080°10'0 0.0
2018-Feb-16 07:00N 25°46' W 080°10'0 0.0
2018-Feb-16 06:30N 25°46' W 080°10'0 0.0
2018-Feb-16 06:00N 25°46' W 080°10'0 0.0
2018-Feb-16 05:29N 25°46' W 080°10'0 0.0
2018-Feb-16 05:00N 25°46' W 080°10'0 0.0
2018-Feb-16 04:29N 25°46' W 080°10'0 0.0
2018-Feb-16 03:59N 25°46' W 080°10'1 1.7
2018-Feb-16 03:30N 25°46' W 080°09'5 9.6
2018-Feb-16 03:00N 25°46' W 080°04'714.5
2018-Feb-16 02:30N 25°40' W 080°01'918.2
2018-Feb-16 02:00N 25°31' W 079°58'917.7
2018-Feb-16 01:30N 25°22' W 079°59'  
2018-Feb-10 08:26N 25°15' W 080°03'512.7
2018-Feb-10 08:00N 25°21' W 080°01'612.3
2018-Feb-10 07:30N 25°27' W 080°01'612.1
2018-Feb-10 07:00N 25°33' W 080°00'611.9
2018-Feb-10 06:30N 25°39' W 080°01'612.1
2018-Feb-10 06:00N 25°44' W 080°03'510.1
2018-Feb-10 05:31N 25°46' W 080°08'2 3.4
2018-Feb-10 05:00N 25°46' W 080°10'0 0.0
2018-Feb-10 04:29N 25°46' W 080°10'0 0.0
2018-Feb-10 03:56N 25°46' W 080°10'0 0.0
2018-Feb-10 03:29N 25°46' W 080°10'0 0.0
2018-Feb-10 02:59N 25°46' W 080°10'0 0.0
2018-Feb-10 02:30N 25°46' W 080°10'0 0.0
2018-Feb-10 02:01N 25°46' W 080°10'0 0.0
2018-Feb-10 01:31N 25°46' W 080°10'0 0.0
2018-Feb-10 01:00N 25°46' W 080°10'0 0.0
2018-Feb-10 00:30N 25°46' W 080°10'0 0.0
2018-Feb-10 00:00N 25°46' W 080°10'0 0.0
2018-Feb-09 23:30N 25°46' W 080°10'0 0.0
2018-Feb-09 23:00N 25°46' W 080°10'0 0.0
2018-Feb-09 22:46N 25°46' W 080°10'0 0.0
2018-Feb-09 22:00N 25°46' W 080°10'0 0.0
2018-Feb-09 21:30N 25°46' W 080°10'0 0.0
2018-Feb-09 20:01N 25°46' W 080°10'0 0.0
2018-Feb-09 19:31N 25°46' W 080°10'0 0.0
2018-Feb-09 19:01N 25°46' W 080°10'0 0.0
2018-Feb-09 18:30N 25°46' W 080°10'0 0.0
2018-Feb-09 18:01N 25°46' W 080°10'0 0.0
2018-Feb-09 17:30N 25°46' W 080°10'0 0.0
2018-Feb-09 17:01N 25°46' W 080°10'0 0.0
2018-Feb-09 16:30N 25°46' W 080°10'0 0.0
2018-Feb-09 16:00N 25°46' W 080°10'0 0.0
2018-Feb-09 15:30N 25°46' W 080°10'0 0.0
2018-Feb-09 15:00N 25°46' W 080°10'0 0.0
2018-Feb-09 14:30N 25°46' W 080°10'0 0.0
2018-Feb-09 14:00N 25°46' W 080°10'0 0.0
2018-Feb-09 13:30N 25°46' W 080°10'0 0.0
2018-Feb-09 13:00N 25°46' W 080°10'0 0.0
2018-Feb-09 12:30N 25°46' W 080°10'0 0.0
2018-Feb-09 11:30N 25°46' W 080°10'0 0.0
2018-Feb-09 11:00N 25°46' W 080°10'0 0.0
2018-Feb-09 10:30N 25°46' W 080°10'0 0.0
2018-Feb-09 09:30N 25°46' W 080°10'0 0.0
2018-Feb-09 09:00N 25°46' W 080°10'0 0.0
2018-Feb-09 08:30N 25°46' W 080°10'0 0.0
2018-Feb-09 08:00N 25°46' W 080°10'0 0.0
2018-Feb-09 07:00N 25°46' W 080°10'0 0.0
2018-Feb-09 06:30N 25°46' W 080°10'0 0.0
2018-Feb-09 06:00N 25°46' W 080°10'0 0.0
2018-Feb-09 05:30N 25°46' W 080°10'0 0.0
2018-Feb-09 05:00N 25°46' W 080°10'0 0.0
2018-Feb-09 04:31N 25°46' W 080°10'0 0.0
2018-Feb-09 04:00N 25°46' W 080°10'0 0.0
2018-Feb-09 03:30N 25°46' W 080°10'0 0.0
2018-Feb-09 03:00N 25°46' W 080°10'0 0.0
2018-Feb-09 02:30N 25°46' W 080°10'0 0.0
2018-Feb-09 01:30N 25°46' W 080°10'0 0.0
2018-Feb-09 01:00N 25°46' W 080°10'0 0.0
2018-Feb-09 00:30N 25°46' W 080°10'0 0.0
2018-Feb-09 00:00N 25°46' W 080°10'0 0.0
2018-Feb-08 23:30N 25°46' W 080°10'0 0.0
2018-Feb-08 23:00N 25°46' W 080°10'0 0.0
2018-Feb-08 22:00N 25°46' W 080°10'0 0.0
2018-Feb-08 21:30N 25°46' W 080°10'0 0.0
2018-Feb-08 21:00N 25°46' W 080°10'0 0.0
2018-Feb-08 20:30N 25°46' W 080°10'0 0.0
2018-Feb-08 20:00N 25°46' W 080°10'0 0.0
2018-Feb-08 19:30N 25°46' W 080°10'0 0.0
2018-Feb-08 19:00N 25°46' W 080°10'16 7.8
2018-Feb-08 17:00N 25°34' W 079°59'  
Track history (hours):
 
Tides and Currents Weather Stations Pressure Air Temp Water Temp Dewpoint Dewpoint Depression Visibility Wind Speed Wind Dir Waves Ship Positions

Bg Felixstowe

Last reported at 2018-Feb-17 09:23 UTC. Time now 2018-Feb-20 13:36 UTC.
Position N 25°17' W 080°04'.

Length 139 m; draft 5.9 m.

Type: Ship. MMSI: 304906000.

Date/timePositionNaut miles runAvg speedWind from/ knotsBaromVisibWave heightAir tempDewpointWater temp
2018-Feb-17 09:23N 25°17' W 080°04'513.1
2018-Feb-17 09:00N 25°22' W 080°02'713.1
2018-Feb-17 08:30N 25°29' W 080°01'713.4
2018-Feb-17 08:00N 25°35' W 080°02'713.7
2018-Feb-17 07:30N 25°42' W 080°02'5 9.9
2018-Feb-17 07:00N 25°46' W 080°06'3 6.5
2018-Feb-17 06:30N 25°46' W 080°10'0 0.0
2018-Feb-17 05:58N 25°46' W 080°10'0 0.0
2018-Feb-17 05:28N 25°46' W 080°10'0 0.0
2018-Feb-17 05:00N 25°46' W 080°10'0 0.0
2018-Feb-17 04:29N 25°46' W 080°10'0 0.0
2018-Feb-17 03:59N 25°46' W 080°10'0 0.0
2018-Feb-17 03:29N 25°46' W 080°10'0 0.0
2018-Feb-17 02:59N 25°46' W 080°10'0 0.0
2018-Feb-17 02:28N 25°46' W 080°10'0 0.0
2018-Feb-17 01:58N 25°46' W 080°10'0 0.0
2018-Feb-17 01:28N 25°46' W 080°10'0 0.0
2018-Feb-17 00:58N 25°46' W 080°10'0 0.0
2018-Feb-17 00:28N 25°46' W 080°10'0 0.0
2018-Feb-17 00:00N 25°46' W 080°10'0 0.0
2018-Feb-16 23:30N 25°46' W 080°10'0 0.0
2018-Feb-16 23:00N 25°46' W 080°10'0 0.0
2018-Feb-16 22:27N 25°46' W 080°10'0 0.0
2018-Feb-16 21:56N 25°46' W 080°10'0 0.0
2018-Feb-16 21:29N 25°46' W 080°10'0 0.0
2018-Feb-16 20:59N 25°46' W 080°10'0 0.0
2018-Feb-16 20:29N 25°46' W 080°10'0 0.0
2018-Feb-16 19:59N 25°46' W 080°10'0 0.0
2018-Feb-16 19:25N 25°46' W 080°10'0 0.0
2018-Feb-16 18:58N 25°46' W 080°10'0 0.0
2018-Feb-16 18:28N 25°46' W 080°10'0 0.0
2018-Feb-16 17:58N 25°46' W 080°10'0 0.0
2018-Feb-16 17:28N 25°46' W 080°10'0 0.0
2018-Feb-16 17:00N 25°46' W 080°10'0 0.0
2018-Feb-16 16:30N 25°46' W 080°10'0 0.0
2018-Feb-16 16:00N 25°46' W 080°10'0 0.0
2018-Feb-16 15:30N 25°46' W 080°10'0 0.0
2018-Feb-16 14:59N 25°46' W 080°10'0 0.0
2018-Feb-16 14:29N 25°46' W 080°10'0 0.0
2018-Feb-16 13:59N 25°46' W 080°10'0 0.0
2018-Feb-16 13:29N 25°46' W 080°10'0 0.0
2018-Feb-16 12:59N 25°46' W 080°10'0 0.0
2018-Feb-16 12:22N 25°46' W 080°10'0 0.0
2018-Feb-16 12:00N 25°46' W 080°10'1 1.1
2018-Feb-16 11:30N 25°46' W 080°10'0 0.2
2018-Feb-16 10:59N 25°46' W 080°10'0 0.0
2018-Feb-16 10:29N 25°46' W 080°10'0 0.0
2018-Feb-16 09:58N 25°46' W 080°10'0 0.0
2018-Feb-16 09:28N 25°46' W 080°10'0 0.0
2018-Feb-16 08:52N 25°46' W 080°10'0 0.0
2018-Feb-16 08:25N 25°46' W 080°10'0 0.0
2018-Feb-16 08:00N 25°46' W 080°10'0 0.0
2018-Feb-16 07:30N 25°46' W 080°10'0 0.0
2018-Feb-16 07:00N 25°46' W 080°10'0 0.0
2018-Feb-16 06:30N 25°46' W 080°10'0 0.0
2018-Feb-16 06:00N 25°46' W 080°10'0 0.0
2018-Feb-16 05:29N 25°46' W 080°10'0 0.0
2018-Feb-16 05:00N 25°46' W 080°10'0 0.0
2018-Feb-16 04:29N 25°46' W 080°10'0 0.0
2018-Feb-16 03:59N 25°46' W 080°10'1 1.7
2018-Feb-16 03:30N 25°46' W 080°09'5 9.6
2018-Feb-16 03:00N 25°46' W 080°04'714.5
2018-Feb-16 02:30N 25°40' W 080°01'918.2
2018-Feb-16 02:00N 25°31' W 079°58'917.7
2018-Feb-16 01:30N 25°22' W 079°59'  
2018-Feb-10 08:26N 25°15' W 080°03'512.7
2018-Feb-10 08:00N 25°21' W 080°01'612.3
2018-Feb-10 07:30N 25°27' W 080°01'612.1
2018-Feb-10 07:00N 25°33' W 080°00'611.9
2018-Feb-10 06:30N 25°39' W 080°01'612.1
2018-Feb-10 06:00N 25°44' W 080°03'510.1
2018-Feb-10 05:31N 25°46' W 080°08'2 3.4
2018-Feb-10 05:00N 25°46' W 080°10'0 0.0
2018-Feb-10 04:29N 25°46' W 080°10'0 0.0
2018-Feb-10 03:56N 25°46' W 080°10'0 0.0
2018-Feb-10 03:29N 25°46' W 080°10'0 0.0
2018-Feb-10 02:59N 25°46' W 080°10'0 0.0
2018-Feb-10 02:30N 25°46' W 080°10'0 0.0
2018-Feb-10 02:01N 25°46' W 080°10'0 0.0
2018-Feb-10 01:31N 25°46' W 080°10'0 0.0
2018-Feb-10 01:00N 25°46' W 080°10'0 0.0
2018-Feb-10 00:30N 25°46' W 080°10'0 0.0
2018-Feb-10 00:00N 25°46' W 080°10'0 0.0
2018-Feb-09 23:30N 25°46' W 080°10'0 0.0
2018-Feb-09 23:00N 25°46' W 080°10'0 0.0
2018-Feb-09 22:46N 25°46' W 080°10'0 0.0
2018-Feb-09 22:00N 25°46' W 080°10'0 0.0
2018-Feb-09 21:30N 25°46' W 080°10'0 0.0
2018-Feb-09 20:01N 25°46' W 080°10'0 0.0
2018-Feb-09 19:31N 25°46' W 080°10'0 0.0
2018-Feb-09 19:01N 25°46' W 080°10'0 0.0
2018-Feb-09 18:30N 25°46' W 080°10'0 0.0
2018-Feb-09 18:01N 25°46' W 080°10'0 0.0
2018-Feb-09 17:30N 25°46' W 080°10'0 0.0
2018-Feb-09 17:01N 25°46' W 080°10'0 0.0
2018-Feb-09 16:30N 25°46' W 080°10'0 0.0
2018-Feb-09 16:00N 25°46' W 080°10'0 0.0
2018-Feb-09 15:30N 25°46' W 080°10'0 0.0
2018-Feb-09 15:00N 25°46' W 080°10'0 0.0
2018-Feb-09 14:30N 25°46' W 080°10'0 0.0
2018-Feb-09 14:00N 25°46' W 080°10'0 0.0
2018-Feb-09 13:30N 25°46' W 080°10'0 0.0
2018-Feb-09 13:00N 25°46' W 080°10'0 0.0
2018-Feb-09 12:30N 25°46' W 080°10'0 0.0
2018-Feb-09 11:30N 25°46' W 080°10'0 0.0
2018-Feb-09 11:00N 25°46' W 080°10'0 0.0
2018-Feb-09 10:30N 25°46' W 080°10'0 0.0
2018-Feb-09 09:30N 25°46' W 080°10'0 0.0
2018-Feb-09 09:00N 25°46' W 080°10'0 0.0
2018-Feb-09 08:30N 25°46' W 080°10'0 0.0
2018-Feb-09 08:00N 25°46' W 080°10'0 0.0
2018-Feb-09 07:00N 25°46' W 080°10'0 0.0
2018-Feb-09 06:30N 25°46' W 080°10'0 0.0
2018-Feb-09 06:00N 25°46' W 080°10'0 0.0
2018-Feb-09 05:30N 25°46' W 080°10'0 0.0
2018-Feb-09 05:00N 25°46' W 080°10'0 0.0
2018-Feb-09 04:31N 25°46' W 080°10'0 0.0
2018-Feb-09 04:00N 25°46' W 080°10'0 0.0
2018-Feb-09 03:30N 25°46' W 080°10'0 0.0
2018-Feb-09 03:00N 25°46' W 080°10'0 0.0
2018-Feb-09 02:30N 25°46' W 080°10'0 0.0
2018-Feb-09 01:30N 25°46' W 080°10'0 0.0
2018-Feb-09 01:00N 25°46' W 080°10'0 0.0
2018-Feb-09 00:30N 25°46' W 080°10'0 0.0
2018-Feb-09 00:00N 25°46' W 080°10'0 0.0
2018-Feb-08 23:30N 25°46' W 080°10'0 0.0
2018-Feb-08 23:00N 25°46' W 080°10'0 0.0
2018-Feb-08 22:00N 25°46' W 080°10'0 0.0
2018-Feb-08 21:30N 25°46' W 080°10'0 0.0
2018-Feb-08 21:00N 25°46' W 080°10'0 0.0
2018-Feb-08 20:30N 25°46' W 080°10'0 0.0
2018-Feb-08 20:00N 25°46' W 080°10'0 0.0
2018-Feb-08 19:30N 25°46' W 080°10'0 0.0
2018-Feb-08 19:00N 25°46' W 080°10'16 7.8
2018-Feb-08 17:00N 25°34' W 079°59'  

Dump ship's entire track history